createdAt,value
2024-05-09T00:02:03.731Z,100387.69
2024-05-09T00:04:29.846Z,100368.75
2024-05-09T00:06:56.015Z,100364.44
2024-05-09T00:09:22.159Z,100336.44
2024-05-09T00:11:48.378Z,100360.22
2024-05-09T00:14:14.528Z,100368.22
2024-05-09T00:16:40.618Z,100366.94
2024-05-09T00:19:06.834Z,100376.69
2024-05-09T00:21:32.941Z,100387.69
2024-05-09T00:23:58.968Z,100366.00
2024-05-09T00:26:25.138Z,100373.22
2024-05-09T00:28:51.361Z,100359.53
2024-05-09T00:31:17.587Z,100355.50
2024-05-09T00:33:43.832Z,100374.63
2024-05-09T00:36:09.961Z,100371.34
2024-05-09T00:38:36.182Z,100362.72
2024-05-09T00:41:02.403Z,100347.50
2024-05-09T00:43:28.463Z,100359.13
2024-05-09T00:45:56.814Z,100354.31
2024-05-09T00:48:23.146Z,100354.09
2024-05-09T00:50:50.317Z,100352.38
2024-05-09T00:53:18.330Z,100353.25
2024-05-09T00:55:45.955Z,100368.22
2024-05-09T00:58:15.855Z,100348.19
2024-05-09T01:00:42.796Z,100340.50
2024-05-09T01:03:11.627Z,100343.19
2024-05-09T01:05:39.833Z,100364.63
2024-05-09T01:08:07.195Z,100368.75
2024-05-09T01:10:35.255Z,100354.47
2024-05-09T01:13:03.775Z,100362.09
2024-05-09T01:15:29.992Z,100374.09
2024-05-09T01:17:57.114Z,100355.16
2024-05-09T01:20:32.103Z,100357.72
2024-05-09T01:23:07.053Z,100345.34
2024-05-09T01:25:33.227Z,100355.66
2024-05-09T01:27:59.301Z,100359.28
2024-05-09T01:30:31.935Z,100368.59
2024-05-09T01:33:01.718Z,100348.78
2024-05-09T01:35:28.087Z,100345.00
2024-05-09T01:37:54.193Z,100356.19
2024-05-09T01:40:25.361Z,100357.38
2024-05-09T01:43:00.014Z,100341.91
2024-05-09T01:45:26.046Z,100338.63
2024-05-09T01:47:52.344Z,100341.44
2024-05-09T01:50:22.542Z,100357.72
2024-05-09T01:52:54.962Z,100346.53
2024-05-09T01:55:21.184Z,100347.25
2024-05-09T01:57:47.212Z,100345.69
2024-05-09T02:02:45.051Z,100368.38
2024-05-09T02:05:11.411Z,100361.53
2024-05-09T02:07:37.626Z,100360.38
2024-05-09T02:10:10.827Z,100344.13
2024-05-09T02:12:42.171Z,100364.19
2024-05-09T02:15:08.400Z,100357.53
2024-05-09T02:17:34.600Z,100367.03
2024-05-09T02:20:00.843Z,100340.84
2024-05-09T02:22:26.907Z,100362.78
2024-05-09T02:24:52.986Z,100362.88
2024-05-09T02:27:19.039Z,100349.78
2024-05-09T02:29:45.125Z,100352.13
2024-05-09T02:32:11.252Z,100354.63
2024-05-09T02:34:37.455Z,100347.97
2024-05-09T02:37:03.647Z,100346.94
2024-05-09T02:39:29.704Z,100368.59
2024-05-09T02:41:55.721Z,100361.69
2024-05-09T02:44:21.769Z,100377.19
2024-05-09T02:46:47.861Z,100368.59
2024-05-09T02:49:15.448Z,100367.81
2024-05-09T02:51:41.623Z,100356.34
2024-05-09T02:54:09.363Z,100354.78
2024-05-09T02:56:35.494Z,100352.13
2024-05-09T02:59:01.688Z,100359.81
2024-05-09T03:01:27.773Z,100366.50
2024-05-09T03:03:53.948Z,100355.31
2024-05-09T03:06:20.101Z,100357.06
2024-05-09T03:08:48.893Z,100369.94
2024-05-09T03:11:24.930Z,100354.31
2024-05-09T03:13:52.311Z,100371.75
2024-05-09T03:16:18.786Z,100364.13
2024-05-09T03:18:45.340Z,100380.78
2024-05-09T03:21:11.591Z,100378.13
2024-05-09T03:23:41.654Z,100359.81
2024-05-09T03:26:16.012Z,100352.75
2024-05-09T03:28:42.997Z,100365.56
2024-05-09T03:31:09.115Z,100364.97
2024-05-09T03:33:35.577Z,100372.69
2024-05-09T03:36:04.243Z,100354.78
2024-05-09T03:38:36.729Z,100356.19
2024-05-09T03:41:02.992Z,100367.72
2024-05-09T03:43:29.057Z,100381.72
2024-05-09T03:45:55.373Z,100373.06
2024-05-09T03:48:21.726Z,100369.53
2024-05-09T03:50:48.105Z,100362.31
2024-05-09T03:53:15.207Z,100362.72
2024-05-09T03:55:41.354Z,100373.91
2024-05-09T03:58:07.679Z,100355.72
2024-05-09T04:00:38.216Z,100373.72
2024-05-09T04:03:07.735Z,100376.50
2024-05-09T04:05:37.263Z,100366.31
2024-05-09T04:08:03.507Z,100360.66
2024-05-09T04:10:33.402Z,100373.53
2024-05-09T04:13:01.207Z,100388.78
2024-05-09T04:15:27.340Z,100391.34
2024-05-09T04:17:53.554Z,100375.78
2024-05-09T04:20:29.277Z,100381.63
2024-05-09T04:23:03.805Z,100384.66
2024-05-09T04:25:31.394Z,100406.09
2024-05-09T04:27:57.478Z,100395.34
2024-05-09T04:30:34.281Z,100379.91
2024-05-09T04:33:05.479Z,100402.31
2024-05-09T04:35:31.751Z,100409.88
2024-05-09T04:37:57.871Z,100395.13
2024-05-09T04:40:31.238Z,100388.50
2024-05-09T04:43:00.951Z,100404.06
2024-05-09T04:45:27.039Z,100424.81
2024-05-09T04:47:54.024Z,100403.50
2024-05-09T04:50:29.343Z,100416.19
2024-05-09T04:53:01.860Z,100401.28
2024-05-09T04:55:28.156Z,100406.06
2024-05-09T04:57:54.204Z,100408.38
2024-05-09T05:00:28.641Z,100408.31
2024-05-09T05:03:05.100Z,100422.25
2024-05-09T05:05:31.569Z,100430.25
2024-05-09T05:07:57.760Z,100395.88
2024-05-09T05:10:32.958Z,100413.03
2024-05-09T05:13:19.525Z,100391.09
2024-05-09T05:15:47.319Z,100437.44
2024-05-09T05:18:17.050Z,100420.88
2024-05-09T05:20:43.783Z,100433.59
2024-05-09T05:23:12.658Z,100433.50
2024-05-09T05:25:39.430Z,100443.81
2024-05-09T05:28:09.605Z,100429.91
2024-05-09T05:30:37.360Z,100441.63
2024-05-09T05:33:04.911Z,100433.16
2024-05-09T05:35:31.140Z,100437.91
2024-05-09T05:37:57.317Z,100432.50
2024-05-09T05:40:32.209Z,100446.09
2024-05-09T05:43:05.717Z,100448.78
2024-05-09T05:45:31.829Z,100440.94
2024-05-09T05:48:00.428Z,100449.16
2024-05-09T05:50:32.966Z,100458.81
2024-05-09T05:53:02.861Z,100453.03
2024-05-09T05:55:29.016Z,100443.91
2024-05-09T05:57:55.083Z,100450.72
2024-05-09T06:00:29.101Z,100425.47
2024-05-09T06:03:01.584Z,100452.06
2024-05-09T06:05:28.184Z,100461.31
2024-05-09T06:07:54.355Z,100440.44
2024-05-09T06:10:25.494Z,100465.25
2024-05-09T06:12:55.565Z,100454.81
2024-05-09T06:15:21.610Z,100469.91
2024-05-09T06:17:47.737Z,100464.09
2024-05-09T06:20:20.572Z,100474.84
2024-05-09T06:22:52.987Z,100458.63
2024-05-09T06:25:19.084Z,100472.03
2024-05-09T06:27:45.190Z,100470.78
2024-05-09T06:30:24.817Z,100471.78
2024-05-09T06:32:55.776Z,100480.28
2024-05-09T06:35:21.994Z,100460.13
2024-05-09T06:37:48.109Z,100463.84
2024-05-09T06:40:17.483Z,100477.72
2024-05-09T06:42:43.816Z,100475.97
2024-05-09T06:45:09.867Z,100472.72
2024-05-09T06:47:35.974Z,100493.00
2024-05-09T06:50:02.810Z,100498.75
2024-05-09T06:52:29.682Z,100491.38
2024-05-09T06:54:56.003Z,100495.78
2024-05-09T06:57:22.642Z,100497.50
2024-05-09T06:59:48.699Z,100472.81
2024-05-09T07:02:14.853Z,100488.41
2024-05-09T07:04:41.059Z,100474.38
2024-05-09T07:07:08.794Z,100479.63
2024-05-09T07:09:34.848Z,100498.72
2024-05-09T07:12:01.006Z,100498.91
2024-05-09T07:14:27.379Z,100485.63
2024-05-09T07:16:53.534Z,100508.75
2024-05-09T07:19:19.782Z,100491.47
2024-05-09T07:21:45.965Z,100485.88
2024-05-09T07:24:11.996Z,100505.81
2024-05-09T07:26:38.245Z,100504.44
2024-05-09T07:29:04.391Z,100490.28
2024-05-09T07:31:30.879Z,100494.13
2024-05-09T07:33:57.121Z,100501.41
2024-05-09T07:36:23.328Z,100493.00
2024-05-09T07:38:49.440Z,100486.47
2024-05-09T07:41:15.543Z,100503.34
2024-05-09T07:43:43.749Z,100491.50
2024-05-09T07:47:14.053Z,100465.56
2024-05-09T07:50:35.602Z,100493.44
2024-05-09T07:54:13.308Z,100503.97
2024-05-09T07:56:39.849Z,100506.66
2024-05-09T07:59:06.018Z,100486.13
2024-05-09T08:01:32.192Z,100499.66
2024-05-09T08:03:58.590Z,100483.59
2024-05-09T08:06:25.328Z,100509.44
2024-05-09T08:08:51.853Z,100459.44
2024-05-09T08:11:19.161Z,100493.00
2024-05-09T08:13:45.570Z,100504.84
2024-05-09T08:16:13.755Z,100494.53
2024-05-09T08:18:40.219Z,100495.50
2024-05-09T08:21:06.390Z,100485.38
2024-05-09T08:23:32.508Z,100510.03
2024-05-09T08:25:58.610Z,100507.94
2024-05-09T08:28:24.707Z,100500.75
2024-05-09T08:30:50.985Z,100505.03
2024-05-09T08:33:17.222Z,100491.63
2024-05-09T08:35:43.405Z,100513.25
2024-05-09T08:38:09.493Z,100513.63
2024-05-09T08:40:37.411Z,100494.34
2024-05-09T08:43:09.032Z,100495.28
2024-05-09T08:45:38.213Z,100503.03
2024-05-09T08:48:07.985Z,100500.66
2024-05-09T08:50:38.982Z,100488.44
2024-05-09T09:00:42.619Z,100483.09
2024-05-09T09:03:10.898Z,100496.44
2024-05-09T09:05:38.800Z,100490.19
2024-05-09T09:08:07.141Z,100484.63
2024-05-09T09:10:33.643Z,100488.03
2024-05-09T09:13:04.007Z,100477.59
2024-05-09T09:15:30.158Z,100479.81
2024-05-09T09:17:58.287Z,100465.47
2024-05-09T09:20:35.623Z,100474.91
2024-05-09T09:23:03.593Z,100467.38
2024-05-09T09:25:29.938Z,100469.69
2024-05-09T09:27:57.846Z,100467.06
2024-05-09T09:30:34.612Z,100446.69
2024-05-09T09:33:03.933Z,100445.72
2024-05-09T09:35:30.092Z,100464.69
2024-05-09T09:37:59.839Z,100462.28
2024-05-09T09:40:32.169Z,100474.53
2024-05-09T09:43:01.087Z,100475.44
2024-05-09T09:45:31.943Z,100465.75
2024-05-09T09:47:58.812Z,100460.47
2024-05-09T09:50:33.244Z,100461.13
2024-05-09T09:53:00.834Z,100465.84
2024-05-09T09:55:27.896Z,100476.09
2024-05-09T09:57:55.387Z,100461.63
2024-05-09T10:00:27.408Z,100470.88
2024-05-09T10:02:58.540Z,100466.38
2024-05-09T10:05:25.048Z,100479.22
2024-05-09T10:07:52.755Z,100461.09
2024-05-09T10:10:30.037Z,100471.34
2024-05-09T10:12:59.505Z,100468.19
2024-05-09T10:15:25.654Z,100469.50
2024-05-09T10:17:51.817Z,100467.66
2024-05-09T10:20:21.994Z,100460.13
2024-05-09T10:22:51.605Z,100449.88
2024-05-09T10:25:17.777Z,100416.00
2024-05-09T10:27:54.987Z,100450.00
2024-05-09T10:30:29.769Z,100456.63
2024-05-09T10:33:01.734Z,100459.16
2024-05-09T10:35:31.485Z,100458.41
2024-05-09T10:38:05.407Z,100426.47
2024-05-09T10:40:32.139Z,100424.94
2024-05-09T10:43:01.969Z,100431.28
2024-05-09T10:45:29.613Z,100431.84
2024-05-09T10:47:55.854Z,100425.50
2024-05-09T10:50:25.641Z,100445.47
2024-05-09T10:52:55.027Z,100427.22
2024-05-09T10:55:21.394Z,100426.25
2024-05-09T10:57:47.783Z,100408.88
2024-05-09T11:00:23.209Z,100434.84
2024-05-09T11:02:56.191Z,100425.03
2024-05-09T11:05:23.733Z,100444.84
2024-05-09T11:07:50.496Z,100430.53
2024-05-09T11:10:24.404Z,100435.25
2024-05-09T11:12:53.555Z,100438.22
2024-05-09T11:15:19.616Z,100428.53
2024-05-09T11:17:45.806Z,100426.25
2024-05-09T11:20:17.110Z,100426.75
2024-05-09T11:22:49.180Z,100417.94
2024-05-09T11:25:15.366Z,100415.88
2024-05-09T11:27:41.840Z,100390.78
2024-05-09T11:30:24.219Z,100414.31
2024-05-09T11:32:58.068Z,100419.84
2024-05-09T11:35:25.905Z,100404.94
2024-05-09T11:37:51.958Z,100406.78
2024-05-09T11:40:25.230Z,100402.38
2024-05-09T11:42:54.560Z,100387.81
2024-05-09T11:45:21.388Z,100382.38
2024-05-09T11:50:22.389Z,100389.34
2024-05-09T11:52:53.383Z,100407.22
2024-05-09T11:55:19.765Z,100404.53
2024-05-09T11:57:45.898Z,100393.25
2024-05-09T12:00:18.194Z,100382.25
2024-05-09T12:02:52.191Z,100380.78
2024-05-09T12:05:18.495Z,100377.84
2024-05-09T12:07:44.701Z,100372.41
2024-05-09T12:10:16.577Z,100365.28
2024-05-09T12:12:45.537Z,100383.28
2024-05-09T12:15:11.968Z,100378.63
2024-05-09T12:17:38.122Z,100361.44
2024-05-09T12:20:09.027Z,100371.53
2024-05-09T12:22:37.235Z,100358.81
2024-05-09T12:25:04.316Z,100372.88
2024-05-09T12:27:30.878Z,100365.53
2024-05-09T12:29:56.978Z,100373.50
2024-05-09T12:32:23.242Z,100370.31
2024-05-09T12:34:49.339Z,100362.81
2024-05-09T12:37:15.596Z,100358.56
2024-05-09T12:39:41.719Z,100359.78
2024-05-09T12:42:08.950Z,100355.84
2024-05-09T12:44:35.863Z,100355.34
2024-05-09T12:47:01.942Z,100334.78
2024-05-09T12:49:28.317Z,100340.53
2024-05-09T12:51:54.557Z,100351.19
2024-05-09T12:54:20.681Z,100351.66
2024-05-09T12:56:46.835Z,100332.84
2024-05-09T12:59:12.863Z,100329.41
2024-05-09T13:01:39.075Z,100353.75
2024-05-09T13:04:05.377Z,100345.78
2024-05-09T13:06:31.627Z,100333.53
2024-05-09T13:08:57.791Z,100342.13
2024-05-09T13:11:23.826Z,100345.06
2024-05-09T13:13:49.993Z,100331.94
2024-05-09T13:16:16.116Z,100350.78
2024-05-09T13:18:43.685Z,100336.56
2024-05-09T13:21:09.825Z,100324.34
2024-05-09T13:23:39.210Z,100329.59
2024-05-09T13:26:05.312Z,100342.41
2024-05-09T13:28:32.981Z,100320.72
2024-05-09T13:30:59.091Z,100337.97
2024-05-09T13:33:25.266Z,100337.09
2024-05-09T13:35:51.489Z,100332.69
2024-05-09T13:38:19.516Z,100328.81
2024-05-09T13:40:46.174Z,100311.44
2024-05-09T13:43:12.734Z,100320.72
2024-05-09T13:45:39.030Z,100305.28
2024-05-09T13:48:06.115Z,100315.06
2024-05-09T13:50:35.712Z,100300.41
2024-05-09T13:53:07.867Z,100293.03
2024-05-09T13:55:37.633Z,100318.03
2024-05-09T13:58:04.178Z,100305.81
2024-05-09T14:00:42.178Z,100315.97
2024-05-09T14:03:13.914Z,100297.47
2024-05-09T14:05:40.430Z,100296.03
2024-05-09T14:08:08.022Z,100305.56
2024-05-09T14:10:34.956Z,100312.91
2024-05-09T14:13:01.376Z,100303.47
2024-05-09T14:15:27.795Z,100295.56
2024-05-09T14:17:54.687Z,100309.47
2024-05-09T14:20:30.118Z,100290.38
2024-05-09T14:22:58.566Z,100287.81
2024-05-09T14:25:25.837Z,100290.13
2024-05-09T14:27:51.962Z,100301.53
2024-05-09T14:30:25.890Z,100286.34
2024-05-09T14:32:59.844Z,100300.66
2024-05-09T14:35:25.947Z,100273.59
2024-05-09T14:37:52.023Z,100301.59
2024-05-09T14:42:47.123Z,100289.16
2024-05-09T14:45:13.239Z,100285.47
2024-05-09T14:47:39.719Z,100295.03
2024-05-09T14:50:07.075Z,100295.28
2024-05-09T14:52:34.959Z,100282.53
2024-05-09T14:55:01.294Z,100282.78
2024-05-09T14:57:27.499Z,100272.00
2024-05-09T14:59:53.533Z,100271.88
2024-05-09T15:02:19.725Z,100261.72
2024-05-09T15:04:46.095Z,100269.31
2024-05-09T15:07:12.297Z,100285.97
2024-05-09T15:09:38.422Z,100287.31
2024-05-09T15:12:04.653Z,100267.16
2024-05-09T15:14:30.702Z,100277.50
2024-05-09T15:16:56.971Z,100260.53
2024-05-09T15:19:23.169Z,100268.81
2024-05-09T15:21:49.581Z,100264.78
2024-05-09T15:24:15.657Z,100264.53
2024-05-09T15:26:41.758Z,100251.19
2024-05-09T15:29:07.821Z,100264.88
2024-05-09T15:31:33.982Z,100259.38
2024-05-09T15:34:00.383Z,100239.03
2024-05-09T15:36:26.636Z,100249.31
2024-05-09T15:38:54.990Z,100244.44
2024-05-09T15:41:21.054Z,100263.53
2024-05-09T15:43:47.113Z,100264.41
2024-05-09T15:46:13.222Z,100253.44
2024-05-09T15:48:44.342Z,100245.13
2024-05-09T15:51:11.040Z,100242.66
2024-05-09T15:53:37.102Z,100250.94
2024-05-09T15:56:03.401Z,100265.13
2024-05-09T15:58:29.584Z,100254.00
2024-05-09T16:00:55.816Z,100250.56
2024-05-09T16:03:22.008Z,100267.09
2024-05-09T16:05:49.977Z,100252.44
2024-05-09T16:08:16.245Z,100261.97
2024-05-09T16:10:45.626Z,100253.16
2024-05-09T16:13:12.660Z,100250.94
2024-05-09T16:15:39.011Z,100255.34
2024-05-09T16:18:05.474Z,100260.00
2024-05-09T16:20:38.893Z,100261.22
2024-05-09T16:23:07.932Z,100256.81
2024-05-09T16:25:34.461Z,100251.44
2024-05-09T16:28:00.961Z,100252.91
2024-05-09T16:30:34.174Z,100260.97
2024-05-09T16:33:03.056Z,100266.34
2024-05-09T16:35:29.606Z,100258.03
2024-05-09T16:37:55.760Z,100258.03
2024-05-09T16:40:29.939Z,100265.13
2024-05-09T16:43:03.440Z,100251.44
2024-05-09T16:45:29.855Z,100249.81
2024-05-09T16:47:56.315Z,100254.09
2024-05-09T16:50:29.193Z,100246.41
2024-05-09T16:52:58.780Z,100261.72
2024-05-09T16:55:24.864Z,100247.06
2024-05-09T16:57:51.458Z,100267.09
2024-05-09T17:00:25.956Z,100257.09
2024-05-09T17:03:01.531Z,100255.59
2024-05-09T17:05:29.004Z,100251.44
2024-05-09T17:07:55.638Z,100232.38
2024-05-09T17:10:29.254Z,100267.09
2024-05-09T17:12:58.810Z,100267.34
2024-05-09T17:15:25.198Z,100268.75
2024-05-09T17:17:51.311Z,100253.31
2024-05-09T17:20:28.831Z,100251.72
2024-05-09T17:22:59.394Z,100265.44
2024-05-09T17:25:25.490Z,100277.09
2024-05-09T17:27:51.730Z,100265.13
2024-05-09T17:30:28.143Z,100275.16
2024-05-09T17:32:58.960Z,100266.63
2024-05-09T17:35:25.032Z,100277.28
2024-05-09T17:37:51.182Z,100263.78
2024-05-09T17:40:20.872Z,100280.31
2024-05-09T17:42:53.863Z,100276.63
2024-05-09T17:45:20.234Z,100270.88
2024-05-09T17:47:47.034Z,100269.66
2024-05-09T17:50:20.932Z,100283.00
2024-05-09T17:52:53.123Z,100286.78
2024-05-09T17:55:19.345Z,100295.22
2024-05-09T17:57:45.596Z,100292.16
2024-05-09T18:00:14.942Z,100300.81
2024-05-09T18:02:43.647Z,100297.47
2024-05-09T18:05:10.110Z,100309.41
2024-05-09T18:07:36.185Z,100299.09
2024-05-09T18:10:02.466Z,100289.50
2024-05-09T18:12:28.732Z,100289.69
2024-05-09T18:14:54.858Z,100303.59
2024-05-09T18:17:23.583Z,100303.31
2024-05-09T18:19:51.345Z,100312.25
2024-05-09T18:22:17.521Z,100315.94
2024-05-09T18:24:43.804Z,100303.75
2024-05-09T18:27:10.196Z,100318.56
2024-05-09T18:29:36.336Z,100310.66
2024-05-09T18:32:02.444Z,100311.75
2024-05-09T18:34:28.674Z,100333.22
2024-05-09T18:36:54.901Z,100337.28
2024-05-09T18:39:20.991Z,100342.66
2024-05-09T18:41:47.035Z,100343.03
2024-05-09T18:44:13.392Z,100350.88
2024-05-09T18:46:39.508Z,100343.66
2024-05-09T18:49:05.796Z,100356.81
2024-05-09T18:51:32.031Z,100361.84
2024-05-09T18:53:58.242Z,100360.19
2024-05-09T18:56:24.318Z,100369.56
2024-05-09T18:58:50.381Z,100370.38
2024-05-09T19:01:16.604Z,100379.72
2024-05-09T19:03:43.015Z,100362.16
2024-05-09T19:06:09.415Z,100389.16
2024-05-09T19:08:35.527Z,100379.22
2024-05-09T19:11:01.642Z,100388.41
2024-05-09T19:13:27.892Z,100375.22
2024-05-09T19:15:54.063Z,100397.88
2024-05-09T19:18:20.388Z,100402.56
2024-05-09T19:20:46.590Z,100392.63
2024-05-09T19:23:12.790Z,100397.75
2024-05-09T19:25:38.950Z,100405.59
2024-05-09T19:28:05.845Z,100398.56
2024-05-09T19:30:38.876Z,100399.78
2024-05-09T19:33:08.905Z,100413.94
2024-05-09T19:35:35.482Z,100425.19
2024-05-09T19:38:01.982Z,100404.91
2024-05-09T19:40:31.812Z,100420.56
2024-05-09T19:43:00.876Z,100428.34
2024-05-09T19:45:27.217Z,100417.69
2024-05-09T19:47:53.577Z,100425.03
2024-05-09T19:50:26.992Z,100419.41
2024-05-09T19:53:01.976Z,100440.03
2024-05-09T19:55:28.080Z,100417.03
2024-05-09T19:57:54.181Z,100436.69
2024-05-09T20:00:26.523Z,100442.69
2024-05-09T20:02:58.771Z,100421.47
2024-05-09T20:05:25.033Z,100427.75
2024-05-09T20:07:51.269Z,100440.94
2024-05-09T20:10:23.734Z,100432.50
2024-05-09T20:12:53.274Z,100430.84
2024-05-09T20:15:19.357Z,100444.38
2024-05-09T20:17:45.599Z,100451.59
2024-05-09T20:20:20.301Z,100435.22
2024-05-09T20:22:54.190Z,100447.28
2024-05-09T20:25:20.260Z,100446.06
2024-05-09T20:27:46.369Z,100424.53
2024-05-09T20:30:17.049Z,100458.78
2024-05-09T20:32:47.641Z,100460.66
2024-05-09T20:35:13.959Z,100452.56
2024-05-09T20:37:40.497Z,100461.66
2024-05-09T20:40:12.016Z,100454.22
2024-05-09T20:42:44.283Z,100460.03
2024-05-09T20:45:10.356Z,100472.34
2024-05-09T20:47:37.643Z,100471.72
2024-05-09T20:50:09.061Z,100455.34
2024-05-09T20:52:39.533Z,100475.66
2024-05-09T20:55:05.961Z,100476.66
2024-05-09T20:57:32.084Z,100463.81
2024-05-09T20:59:58.184Z,100456.97
2024-05-09T21:02:24.427Z,100464.25
2024-05-09T21:04:50.997Z,100451.47
2024-05-09T21:07:17.335Z,100475.00
2024-05-09T21:09:43.521Z,100462.91
2024-05-09T21:12:09.694Z,100477.00
2024-05-09T21:14:35.958Z,100442.69
2024-05-09T21:17:02.131Z,100462.59
2024-05-09T21:19:28.256Z,100484.53
2024-05-09T21:21:54.376Z,100477.94
2024-05-09T21:24:20.487Z,100467.53
2024-05-09T21:26:46.514Z,100475.41
2024-05-09T21:29:12.570Z,100472.13
2024-05-09T21:31:38.662Z,100478.25
2024-05-09T21:34:04.884Z,100483.72
2024-05-09T21:36:31.035Z,100478.69
2024-05-09T21:38:57.071Z,100491.22
2024-05-09T21:41:24.126Z,100502.00
2024-05-09T21:43:50.179Z,100500.47
2024-05-09T21:46:16.310Z,100486.91
2024-05-09T21:48:42.547Z,100494.13
2024-05-09T21:51:15.391Z,100499.63
2024-05-09T21:53:41.552Z,100505.81
2024-05-09T21:56:07.808Z,100475.41
2024-05-09T21:58:33.887Z,100497.28
2024-05-09T22:00:59.982Z,100488.97
2024-05-09T22:03:26.256Z,100475.13
2024-05-09T22:05:52.442Z,100510.69
2024-05-09T22:08:18.526Z,100493.56
2024-05-09T22:10:44.676Z,100496.56
2024-05-09T22:13:10.874Z,100505.13
2024-05-09T22:15:39.328Z,100498.44
2024-05-09T22:18:06.959Z,100487.16
2024-05-09T22:20:37.402Z,100510.94
2024-05-09T22:23:05.508Z,100493.59
2024-05-09T22:25:32.500Z,100505.22
2024-05-09T22:28:00.142Z,100513.06
2024-05-09T22:30:34.616Z,100509.88
2024-05-09T22:33:05.089Z,100515.94
2024-05-09T22:35:31.398Z,100511.91
2024-05-09T22:37:57.456Z,100509.38
2024-05-09T22:40:33.218Z,100520.09
2024-05-09T22:43:09.111Z,100501.06
2024-05-09T22:45:35.332Z,100506.25
2024-05-09T22:48:01.631Z,100497.91
2024-05-09T22:50:32.863Z,100499.88
2024-05-09T22:52:59.686Z,100504.41
2024-05-09T22:55:25.720Z,100505.31
2024-05-09T22:57:51.862Z,100518.44
2024-05-09T23:00:21.762Z,100519.28
2024-05-09T23:02:52.245Z,100505.41
2024-05-09T23:05:18.423Z,100519.56
2024-05-09T23:07:44.496Z,100525.91
2024-05-09T23:10:17.124Z,100507.84
2024-05-09T23:12:47.674Z,100506.94
2024-05-09T23:15:13.772Z,100515.09
2024-05-09T23:17:39.936Z,100506.53
2024-05-09T23:20:08.880Z,100527.38
2024-05-09T23:22:37.251Z,100514.63
2024-05-09T23:25:03.502Z,100525.19
2024-05-09T23:27:29.573Z,100529.78
2024-05-09T23:29:55.638Z,100518.47
2024-05-09T23:32:21.840Z,100528.78
2024-05-09T23:34:48.192Z,100530.63
2024-05-09T23:37:14.513Z,100526.84
2024-05-09T23:39:40.606Z,100531.91
2024-05-09T23:42:06.888Z,100520.66
2024-05-09T23:44:32.955Z,100531.97
2024-05-09T23:46:59.157Z,100525.09
2024-05-09T23:49:25.259Z,100522.50
2024-05-09T23:51:51.330Z,100525.22
2024-05-09T23:54:17.385Z,100529.63
2024-05-09T23:56:43.438Z,100520.16
2024-05-09T23:59:09.485Z,100519.22
